Date,TemperatureHighF,TemperatureAvgF,TemperatureLowF,DewpointHighF,DewpointAvgF,DewpointLowF,HumidityHigh,HumidityAvg,HumidityLow,PressureMaxIn,PressureMinIn,WindSpeedMaxMPH,WindSpeedAvgMPH,GustSpeedMaxMPH,PrecipitationSumIn
2014-2-1,43.8,31.4,24.3,42.4,30.1,22.1,96,95,91,30.15,29.75,20,5,21,0.10
2014-2-2,24.2,20.4,14.9,22.1,16.9,11.5,100,86,74,30.37,30.14,19,6,19,0.00
2014-2-3,34.6,22.3,10.9,19.7,13.6,7.8,90,71,46,30.41,30.22,14,2,14,0.00
2014-2-4,28.9,25.6,21.5,26.5,20.5,14.7,94,82,57,30.23,29.90,21,5,21,0.00
2014-2-5,24.5,11.8,5.3,22.8,7.0,-1.0,93,81,71,30.66,30.01,23,8,23,0.00
2014-2-6,13.3,6.5,3.4,1.1,-2.3,-6.7,84,67,52,30.70,30.52,14,3,14,0.00
2014-2-7,20.7,12.0,2.3,13.1,4.3,-2.7,86,71,62,30.52,30.30,13,4,13,0.00
2014-2-8,30.6,22.7,17.1,25.4,18.8,11.5,91,85,78,30.30,30.10,11,3,12,0.02
2014-2-9,28.8,25.6,19.7,26.1,21.8,15.0,94,86,76,30.33,30.16,15,4,15,0.02
2014-2-10,22.9,17.2,12.9,15.4,9.9,5.4,89,73,54,30.47,30.33,17,6,17,0.00
2014-2-11,29.6,17.8,10.4,8.8,3.8,-0.6,72,55,37,30.51,30.30,11,4,11,0.02
2014-2-12,38.6,24.1,10.2,24.7,12.9,4.4,82,63,43,30.30,30.02,8,1,9,0.00
2014-2-13,48.4,33.0,21.0,34.6,25.2,17.4,90,74,51,30.03,29.78,17,3,20,0.00
2014-2-14,47.2,34.1,22.3,37.7,27.8,17.8,83,78,68,30.14,29.64,30,6,31,0.02
2014-2-15,49.9,29.9,17.4,32.1,21.3,14.0,90,72,46,30.15,29.91,17,3,17,0.00
2014-2-16,53.1,41.1,31.8,32.8,29.4,25.4,88,65,39,30.17,29.96,23,5,23,0.00
2014-2-17,53.7,43.1,36.2,37.9,29.7,22.5,79,61,34,30.11,29.83,34,8,35,0.00
2014-2-18,65.2,47.7,33.6,34.6,28.6,24.2,71,50,26,30.09,29.77,26,5,26,0.00
2014-2-19,58.7,48.8,34.7,41.8,30.7,20.4,79,52,26,30.02,29.64,23,6,23,0.00
2014-2-20,66.5,49.4,35.8,58.1,40.6,21.3,91,72,45,29.87,29.37,50,11,51,0.07
2014-2-21,54.9,42.6,28.8,23.9,18.4,11.7,72,41,18,30.02,29.87,26,6,26,0.00
2014-2-22,58.1,43.4,34.0,28.1,21.1,15.4,54,42,30,29.98,29.84,19,4,22,0.00
2014-2-24,45.6,40.5,31.4,20.7,15.9,7.5,44,37,31,30.34,30.12,16,4,17,0.00
2014-2-25,39.1,29.8,19.9,20.0,16.1,9.7,71,57,42,30.35,30.18,26,6,26,0.00
2014-2-26,28.4,18.6,13.5,10.6,4.6,-2.0,78,56,30,30.39,30.10,24,5,26,0.00
2014-2-27,42.7,29.3,18.1,14.8,9.9,5.1,65,46,27,30.17,29.96,12,3,12,0.00
2014-2-28,39.2,33.4,26.6,31.2,23.1,11.3,82,66,46,30.03,29.86,24,8,27,0.01